Time;durP1;ratioP1;P1;durP2;ratioP2;P2;SDS_P1;SDS_P2;PMS_P1;PMS_P2;Temp;Humidity;BMP_temperature;BMP_pressure;BME280_temperature;BME280_humidity;BME280_pressure;Samples;Min_cycle;Max_cycle;Signal;HPM_P1;HPM_P2
2022/05/27 00:00:54;;;;;;;;;;;;;;;23.62;40.15;100796.87;5411325;32;35447;-65
2022/05/27 00:03:59;;;;;;;4.00;1.52;;;;;;;22.77;42.13;100795.12;5395387;32;35132;-67
2022/05/27 00:07:01;;;;;;;3.22;1.65;;;;;;;22.77;42.17;100794.28;5400012;32;35474;-69
2022/05/27 00:10:04;;;;;;;4.12;1.65;;;;;;;22.87;41.89;100789.91;5414907;32;35795;-65
2022/05/27 00:13:06;;;;;;;4.78;1.80;;;;;;;22.31;43.17;100798.09;5397724;32;34583;-66
2022/05/27 00:16:08;;;;;;;4.60;1.77;;;;;;;22.04;43.83;100787.78;5411425;32;35141;-65
2022/05/27 00:19:10;;;;;;;1.90;1.40;;;;;;;22.65;42.47;100786.28;5401354;32;34613;-70
2022/05/27 00:22:12;;;;;;;4.32;1.52;;;;;;;22.76;42.42;100774.69;5413022;32;35011;-70
2022/05/27 00:25:15;;;;;;;2.85;1.48;;;;;;;22.44;43.20;100772.87;5400513;32;47005;-66
2022/05/27 00:28:17;;;;;;;4.45;1.40;;;;;;;22.26;43.55;100774.38;5382543;32;34840;-66
2022/05/27 00:31:20;;;;;;;4.20;1.77;;;;;;;22.52;42.94;100772.22;5390416;32;34777;-66
2022/05/27 00:34:22;;;;;;;4.75;1.70;;;;;;;22.71;42.39;100772.37;5397847;32;35387;-66
2022/05/27 00:37:25;;;;;;;4.32;1.80;;;;;;;22.74;42.37;100762.41;5410304;32;35401;-66
2022/05/27 00:40:38;;;;;;;3.08;1.42;;;;;;;22.68;42.45;100767.28;5396171;32;34942;-69
2022/05/27 00:43:41;;;;;;;4.65;1.70;;;;;;;23.30;41.03;100759.41;5406280;32;34784;-64
2022/05/27 00:46:44;;;;;;;2.37;1.40;;;;;;;22.56;42.66;100762.13;5402181;32;34237;-70
2022/05/27 00:49:49;;;;;;;2.72;1.52;;;;;;;23.20;41.35;100760.22;5379796;32;44587;-70
2022/05/27 00:52:51;;;;;;;4.15;1.52;;;;;;;23.42;40.89;100761.03;5401339;32;34911;-66
2022/05/27 00:55:55;;;;;;;;;;;;;;;22.88;42.10;100770.16;5357288;32;34611;-69
2022/05/27 00:59:01;;;;;;;2.85;1.30;;;;;;;22.65;42.15;100764.00;5415530;32;35030;-66
2022/05/27 01:02:03;;;;;;;1.95;1.37;;;;;;;22.44;42.57;100766.66;5384157;32;34732;-66
2022/05/27 01:05:07;;;;;;;3.08;1.33;;;;;;;22.34;42.44;100769.22;5395735;32;35382;-70
2022/05/27 01:08:11;;;;;;;2.80;1.40;;;;;;;22.42;42.40;100766.78;5415233;32;35309;-66
2022/05/27 01:11:16;;;;;;;2.05;1.40;;;;;;;23.09;40.80;100767.47;5371069;32;34579;-69
2022/05/27 01:14:24;;;;;;;1.62;1.23;;;;;;;22.38;42.13;100756.44;5416903;32;46696;-65
2022/05/27 01:18:07;;;;;;;2.75;1.40;;;;;;;22.86;41.25;100758.66;5398940;32;35120;-70
2022/05/27 01:21:14;;;;;;;1.98;1.40;;;;;;;22.66;41.52;100763.88;5401674;32;34667;-66
2022/05/27 01:24:28;;;;;;;2.60;1.33;;;;;;;23.14;40.43;100762.56;5396152;32;46223;-70
2022/05/27 01:27:52;;;;;;;1.90;1.20;;;;;;;22.06;42.39;100762.59;5380736;32;34754;-66
2022/05/27 01:31:04;;;;;;;1.27;1.10;;;;;;;22.29;42.19;100767.94;5406340;32;36973;-67
2022/05/27 01:34:17;;;;;;;2.83;1.50;;;;;;;22.69;41.18;100763.63;5398593;32;36098;-66
2022/05/27 01:37:33;;;;;;;6.57;2.42;;;;;;;22.70;41.25;100759.97;5386674;32;44526;-70
2022/05/27 01:40:38;;;;;;;3.03;1.42;;;;;;;22.00;42.86;100752.37;5399541;32;34225;-66
2022/05/27 01:43:43;;;;;;;2.03;1.35;;;;;;;21.81;43.19;100746.81;5402820;32;34771;-66
2022/05/27 01:46:46;;;;;;;2.35;1.90;;;;;;;22.78;40.92;100753.13;5410312;32;44745;-70
2022/05/27 01:49:55;;;;;;;5.47;1.60;;;;;;;22.85;40.68;100757.81;5380271;32;36354;-66
2022/05/27 01:53:45;;;;;;;2.78;1.60;;;;;;;22.70;41.08;100741.22;5387190;32;34666;-69
2022/05/27 01:56:58;;;;;;;4.30;1.20;;;;;;;22.82;40.98;100754.56;5383606;32;34971;-66
2022/05/27 02:00:07;;;;;;;3.47;1.37;;;;;;;23.19;39.92;100744.28;5387646;32;34493;-71
2022/05/27 02:03:21;;;;;;;2.20;1.48;;;;;;;22.95;40.30;100749.91;5399903;32;35084;-67
2022/05/27 02:06:49;;;;;;;2.37;1.40;;;;;;;22.42;41.34;100749.88;5410130;32;45559;-66
2022/05/27 02:09:56;;;;;;;3.80;1.60;;;;;;;22.73;40.27;100752.66;5391673;32;44962;-69
2022/05/27 02:13:16;;;;;;;3.45;1.42;;;;;;;22.33;41.16;100755.97;5402120;32;34869;-66
2022/05/27 02:16:29;;;;;;;2.50;1.50;;;;;;;22.18;41.43;100750.06;5395952;32;45717;-70
2022/05/27 02:19:38;;;;;;;3.28;1.50;;;;;;;21.88;41.92;100745.34;5381097;32;35279;-67
2022/05/27 02:22:46;;;;;;;6.18;1.75;;;;;;;21.32;43.09;100754.25;5395446;32;35116;-66
2022/05/27 02:25:48;;;;;;;1.85;1.40;;;;;;;21.71;42.37;100756.56;5386920;32;46185;-65
2022/05/27 02:28:52;;;;;;;;;;;;;;;22.26;41.03;100752.09;5407757;32;36610;-69
2022/05/27 02:32:01;;;;;;;4.85;1.20;;;;;;;21.68;42.32;100756.78;5383468;32;34755;-69
2022/05/27 02:35:11;;;;;;;6.70;1.52;;;;;;;21.80;41.91;100745.09;5400633;32;35241;-66
2022/05/27 02:38:13;;;;;;;5.37;1.77;;;;;;;21.88;41.69;100756.88;5399606;32;37372;-70
2022/05/27 02:41:24;;;;;;;3.15;1.37;;;;;;;21.83;41.79;100747.53;5396432;32;44552;-66
2022/05/27 02:44:32;;;;;;;3.15;1.60;;;;;;;22.35;40.49;100749.53;5417664;32;34275;-66
2022/05/27 02:47:43;;;;;;;5.07;1.90;;;;;;;21.46;42.58;100742.47;5395452;32;35021;-66
2022/05/27 02:51:05;;;;;;;2.35;1.40;;;;;;;21.61;42.06;100741.22;5406884;32;45108;-70
2022/05/27 02:54:36;;;;;;;3.45;1.35;;;;;;;21.83;41.60;100751.06;5393418;32;34486;-70
2022/05/27 02:57:43;;;;;;;11.73;2.75;;;;;;;21.16;43.15;100751.00;5378090;32;35393;-66
2022/05/27 03:00:46;;;;;;;5.45;1.73;;;;;;;21.72;41.83;100755.59;5402181;32;45410;-66
2022/05/27 03:03:48;;;;;;;3.37;1.40;;;;;;;22.24;40.79;100746.88;5394408;32;35696;-66
2022/05/27 03:07:00;;;;;;;4.18;1.70;;;;;;;22.05;40.86;100749.34;5391130;32;34634;-70
2022/05/27 03:10:41;;;;;;;3.42;1.58;;;;;;;21.90;40.95;100751.44;5387643;32;34075;-66
2022/05/27 03:14:21;;;;;;;3.05;1.33;;;;;;;22.25;40.07;100758.44;5399282;32;35882;-70
2022/05/27 03:18:02;;;;;;;3.53;1.45;;;;;;;21.61;41.77;100762.63;5404757;32;35342;-66
2022/05/27 03:21:33;;;;;;;5.87;1.42;;;;;;;20.81;43.51;100762.59;5412438;32;33784;-70
2022/05/27 03:25:11;;;;;;;2.67;1.30;;;;;;;21.24;42.46;100763.78;5396336;32;35403;-65
2022/05/27 03:28:31;;;;;;;6.87;1.50;;;;;;;21.52;42.21;100760.69;5383046;32;35291;-70
2022/05/27 03:31:54;;;;;;;3.50;1.58;;;;;;;21.65;41.87;100773.94;5404062;32;34648;-66
2022/05/27 03:35:27;;;;;;;4.62;1.45;;;;;;;22.12;40.58;100767.47;5381215;32;35355;-67
2022/05/27 03:38:36;;;;;;;5.05;1.60;;;;;;;22.04;40.43;100766.37;5387474;32;34670;-67
2022/05/27 03:41:44;;;;;;;2.58;1.30;;;;;;;22.35;39.96;100768.28;5392066;32;35034;-70
2022/05/27 03:44:51;;;;;;;3.70;1.45;;;;;;;22.36;39.91;100761.94;5385153;32;44279;-66
2022/05/27 03:47:53;;;;;;;6.55;1.70;;;;;;;21.96;40.28;100764.31;5398268;32;34345;-69
2022/05/27 03:51:10;;;;;;;2.62;1.25;;;;;;;22.82;38.34;100759.94;5396857;32;35247;-66
2022/05/27 03:54:14;;;;;;;4.35;1.52;;;;;;;22.52;38.66;100768.69;5411081;32;34768;-71
2022/05/27 03:57:16;;;;;;;5.45;1.60;;;;;;;22.30;38.60;100769.63;5384234;32;44795;-70
2022/05/27 04:00:19;;;;;;;4.37;1.10;;;;;;;22.56;37.83;100775.50;5381678;32;35291;-66
2022/05/27 04:03:21;;;;;;;3.95;1.25;;;;;;;21.61;39.84;100773.31;5402133;32;34811;-64
2022/05/27 04:06:24;;;;;;;6.32;1.65;;;;;;;22.28;38.66;100766.22;5397252;32;35449;-70
2022/05/27 04:09:26;;;;;;;2.92;1.10;;;;;;;22.55;38.33;100758.59;5396551;32;35116;-65
2022/05/27 04:12:29;;;;;;;1.30;1.10;;;;;;;22.62;37.73;100762.44;5396227;32;35472;-66
2022/05/27 04:15:31;;;;;;;4.47;1.60;;;;;;;22.79;37.55;100760.16;5406335;32;34752;-71
2022/05/27 04:18:33;;;;;;;4.32;1.20;;;;;;;22.28;38.18;100755.50;5380632;32;34421;-71
2022/05/27 04:21:36;;;;;;;4.47;1.52;;;;;;;22.92;37.20;100763.53;5399422;32;34395;-66
2022/05/27 04:24:38;;;;;;;5.45;1.80;;;;;;;22.75;37.84;100761.44;5417080;32;34981;-66
2022/05/27 04:27:40;;;;;;;7.35;3.12;;;;;;;23.58;36.39;100766.78;5398869;32;34516;-71
2022/05/27 04:30:44;;;;;;;3.40;1.60;;;;;;;22.98;37.88;100763.88;5410784;32;34401;-65
2022/05/27 04:33:46;;;;;;;4.37;1.52;;;;;;;22.79;38.23;100768.22;5399454;32;45026;-65
2022/05/27 04:36:48;;;;;;;;;;;;;;;23.67;36.67;100757.94;5404517;32;34212;-66
2022/05/27 04:39:51;;;;;;;3.15;1.55;;;;;;;24.52;35.13;100748.53;5400380;32;34872;-70
2022/05/27 04:42:53;;;;;;;7.37;2.08;;;;;;;23.48;37.11;100753.28;5399820;32;35590;-71
2022/05/27 04:45:55;;;;;;;5.87;1.80;;;;;;;24.08;36.31;100763.28;5412869;32;35430;-66
2022/05/27 04:48:57;;;;;;;4.82;1.40;;;;;;;23.96;35.80;100757.19;5380691;32;34862;-70
2022/05/27 04:52:00;;;;;;;3.62;1.50;;;;;;;24.17;34.80;100763.31;5412666;32;34375;-70
2022/05/27 04:55:06;;;;;;;2.80;1.50;;;;;;;25.22;33.09;100747.34;5372176;32;34886;-71
2022/05/27 04:58:11;;;;;;;1.98;1.30;;;;;;;25.36;31.78;100748.72;5400296;32;34762;-67
2022/05/27 05:01:13;;;;;;;1.48;1.10;;;;;;;24.82;31.88;100750.22;5393582;32;34804;-72
2022/05/27 05:04:15;;;;;;;2.67;1.27;;;;;;;26.41;29.07;100751.91;5393003;32;44548;-70
2022/05/27 05:07:21;;;;;;;;;;;;;;;27.01;28.42;100732.34;5402778;32;34652;-71
2022/05/27 05:10:23;;;;;;;3.78;1.37;;;;;;;26.56;29.26;100751.38;5374291;32;35436;-71
2022/05/27 05:13:25;;;;;;;4.68;1.60;;;;;;;26.72;28.53;100746.94;5417887;32;34807;-67
2022/05/27 05:16:28;;;;;;;3.65;1.10;;;;;;;26.90;28.46;100749.63;5398659;32;35835;-71
2022/05/27 05:19:30;;;;;;;;;;;;;;;26.66;28.41;100746.72;5405304;32;34299;-67
2022/05/27 05:22:32;;;;;;;7.37;1.60;;;;;;;25.49;30.28;100753.75;5400405;32;35751;-71
2022/05/27 05:25:34;;;;;;;4.07;1.70;;;;;;;26.42;28.78;100758.13;5397541;32;33800;-71
2022/05/27 05:28:36;;;;;;;4.35;1.30;;;;;;;27.99;26.70;100755.34;5417930;32;35250;-66
2022/05/27 05:31:38;;;;;;;5.00;1.50;;;;;;;28.55;25.30;100750.25;5382223;32;34062;-67
2022/05/27 05:34:41;;;;;;;7.07;1.80;;;;;;;26.95;28.00;100747.31;5413417;32;34164;-70
2022/05/27 05:37:43;;;;;;;5.45;1.40;;;;;;;26.34;28.92;100756.19;5398780;32;34350;-69
2022/05/27 05:40:46;;;;;;;3.00;1.10;;;;;;;26.52;28.29;100749.97;5399851;32;46074;-71
2022/05/27 05:43:51;;;;;;;9.48;2.10;;;;;;;27.18;26.81;100757.62;5401015;32;35394;-72
2022/05/27 05:46:53;;;;;;;5.10;1.65;;;;;;;25.31;29.95;100745.59;5396879;32;34243;-67
2022/05/27 05:49:55;;;;;;;2.47;1.23;;;;;;;26.53;28.46;100754.34;5398507;32;34112;-66
2022/05/27 05:52:58;;;;;;;3.00;1.30;;;;;;;28.70;25.13;100743.16;5396785;32;34158;-69
2022/05/27 05:56:00;;;;;;;4.68;1.52;;;;;;;26.86;27.02;100748.25;5394628;32;35414;-68
2022/05/27 05:59:02;;;;;;;3.62;1.15;;;;;;;28.49;25.40;100745.53;5397059;32;34249;-69
2022/05/27 06:02:05;;;;;;;2.90;1.37;;;;;;;28.46;25.78;100743.13;5397353;32;35290;-69
2022/05/27 06:05:08;;;;;;;4.60;1.10;;;;;;;27.89;27.05;100749.25;5394147;32;34750;-68
2022/05/27 06:08:10;;;;;;;8.07;1.52;;;;;;;27.34;27.58;100746.91;5392201;32;34275;-68
2022/05/27 06:11:13;;;;;;;3.10;1.00;;;;;;;27.61;25.78;100745.87;5411366;32;35267;-65
2022/05/27 06:14:15;;;;;;;2.62;1.33;;;;;;;28.62;24.65;100753.97;5397705;32;45244;-68
2022/05/27 06:17:17;;;;;;;4.95;0.98;;;;;;;29.07;24.24;100744.53;5415857;32;34084;-69
2022/05/27 06:20:19;;;;;;;2.28;1.48;;;;;;;28.17;24.71;100751.69;5397481;32;35541;-63
2022/05/27 06:23:22;;;;;;;2.50;0.95;;;;;;;27.71;25.83;100751.19;5401949;32;34115;-65
2022/05/27 06:26:24;;;;;;;1.45;0.90;;;;;;;29.17;24.63;100741.63;5412715;32;34146;-70
2022/05/27 06:36:07;;;;;;;3.17;1.05;;;;;;;28.81;24.39;100726.59;5396589;32;34081;-73
2022/05/27 06:39:10;;;;;;;3.80;1.55;;;;;;;28.64;25.24;100726.75;5400833;32;35198;-65
2022/05/27 06:42:14;;;;;;;5.28;1.25;;;;;;;29.59;23.85;100725.13;5405245;32;34205;-65
2022/05/27 06:45:37;;;;;;;4.12;1.10;;;;;;;28.69;25.32;100737.94;5371451;32;35760;-64
2022/05/27 06:48:39;;;;;;;5.30;1.02;;;;;;;28.49;25.65;100730.16;5398644;32;34084;-65
2022/05/27 06:51:41;;;;;;;3.37;1.10;;;;;;;28.17;26.60;100732.78;5383390;32;35352;-66
2022/05/27 06:54:43;;;;;;;4.25;1.85;;;;;;;29.53;24.99;100725.81;5393580;32;33212;-66
2022/05/27 06:57:46;;;;;;;1.98;1.10;;;;;;;30.57;23.85;100708.28;5395329;32;46687;-64
2022/05/27 07:00:48;;;;;;;4.32;1.20;;;;;;;30.87;23.69;100717.41;5402821;32;34266;-65
2022/05/27 07:03:50;;;;;;;2.87;0.90;;;;;;;30.06;23.74;100719.63;5397634;32;34371;-67
2022/05/27 07:06:53;;;;;;;5.22;1.40;;;;;;;29.37;24.77;100713.16;5399801;32;34703;-72
2022/05/27 07:09:55;;;;;;;4.93;1.40;;;;;;;30.36;23.38;100720.66;5413151;32;34325;-70
2022/05/27 07:12:59;;;;;;;3.62;0.90;;;;;;;29.77;24.39;100720.31;5400497;32;34095;-72
2022/05/27 07:16:02;;;;;;;2.92;1.15;;;;;;;29.08;25.24;100722.69;5405460;32;34191;-74
2022/05/27 07:19:05;;;;;;;7.40;1.30;;;;;;;28.21;26.52;100726.00;5414387;32;35283;-72
2022/05/27 07:22:09;;;;;;;1.37;1.17;;;;;;;30.92;23.16;100704.13;5381058;32;36244;-66
2022/05/27 07:25:13;;;;;;;4.03;1.30;;;;;;;29.61;24.69;100712.25;5409714;32;35553;-70
2022/05/27 07:28:15;;;;;;;7.57;1.20;;;;;;;30.57;23.86;100702.88;5372476;32;378457;-66
2022/05/27 07:31:18;;;;;;;4.62;1.20;;;;;;;31.23;22.65;100695.78;5393541;32;35225;-69
2022/05/27 07:34:20;;;;;;;5.87;1.27;;;;;;;29.98;24.35;100699.88;5378105;32;34415;-69
2022/05/27 07:37:22;;;;;;;2.97;1.23;;;;;;;29.45;24.94;100690.63;5399439;32;34103;-65
2022/05/27 07:40:26;;;;;;;4.05;1.42;;;;;;;29.71;24.48;100698.50;5408696;32;35309;-65
2022/05/27 07:43:29;;;;;;;3.20;1.00;;;;;;;29.39;25.11;100692.19;5396952;32;35187;-66
2022/05/27 07:46:33;;;;;;;3.37;1.20;;;;;;;29.82;24.85;100692.66;5415279;32;35800;-65
2022/05/27 07:49:36;;;;;;;3.67;0.88;;;;;;;29.72;25.52;100687.47;5385417;32;34094;-77
2022/05/27 07:52:38;;;;;;;3.22;1.15;;;;;;;31.51;22.87;100690.59;5412864;32;34677;-65
2022/05/27 07:55:40;;;;;;;10.50;1.30;;;;;;;30.38;23.89;100679.81;5379581;32;35201;-79
2022/05/27 07:58:43;;;;;;;4.62;1.40;;;;;;;28.73;26.12;100690.59;5402797;32;34605;-66
2022/05/27 08:01:45;;;;;;;6.90;1.10;;;;;;;30.11;24.28;100692.88;5413793;32;42918;-66
2022/05/27 08:04:47;;;;;;;9.55;1.20;;;;;;;30.44;24.12;100688.06;5396824;32;34539;-88
2022/05/27 08:07:51;;;;;;;4.12;1.40;;;;;;;29.68;25.24;100673.44;5393754;32;34730;-84
2022/05/27 08:10:56;;;;;;;2.55;1.10;;;;;;;30.47;24.18;100676.00;5397446;32;32963;-83
2022/05/27 08:14:00;;;;;;;3.65;1.40;;;;;;;28.45;26.86;100674.72;5399187;32;35478;-86
2022/05/27 08:17:03;;;;;;;10.90;1.90;;;;;;;31.57;23.38;100665.38;5410557;32;34595;-65
2022/05/27 08:20:08;;;;;;;8.23;1.25;;;;;;;32.66;21.86;100670.75;5397069;32;35369;-64
2022/05/27 08:23:10;;;;;;;13.05;4.70;;;;;;;32.48;21.94;100669.34;5404220;32;33810;-65
2022/05/27 08:26:12;;;;;;;3.50;1.10;;;;;;;31.18;23.69;100671.94;5401786;32;35150;-64
2022/05/27 08:29:15;;;;;;;4.50;1.08;;;;;;;31.49;23.34;100663.63;5412121;32;44689;-64
2022/05/27 08:32:17;;;;;;;7.93;1.10;;;;;;;31.68;23.13;100666.75;5398766;32;34740;-64
2022/05/27 08:38:40;;;;;;;3.77;1.30;;;;;;;30.00;25.41;100665.31;5396956;32;33994;-64
2022/05/27 08:42:10;;;;;;;4.05;1.20;;;;;;;29.84;25.69;100663.56;5400448;32;33964;-78
2022/05/27 08:45:41;;;;;;;3.62;1.65;;;;;;;30.71;24.48;100651.38;5408340;32;35703;-84
2022/05/27 08:48:45;;;;;;;2.35;1.00;;;;;;;29.13;26.38;100655.38;5399418;32;34399;-65
2022/05/27 08:52:34;;;;;;;2.28;1.10;;;;;;;30.20;25.18;100645.69;5384711;32;34815;-66
2022/05/27 08:59:27;;;;;;;9.10;1.20;;;;;;;32.06;22.53;100640.22;5386788;32;34187;-76
2022/05/27 09:02:34;;;;;;;6.05;1.40;;;;;;;31.74;22.93;100636.94;5379522;32;34257;-78
2022/05/27 09:05:43;;;;;;;7.28;1.20;;;;;;;30.72;23.91;100627.81;5409427;32;34952;-66
2022/05/27 09:08:45;;;;;;;6.95;1.50;;;;;;;30.03;24.39;100633.28;5381891;32;44729;-65
2022/05/27 09:12:22;;;;;;;1.55;1.00;;;;;;;30.54;24.20;100633.56;5408226;32;34242;-64
2022/05/27 09:15:43;;;;;;;9.65;1.58;;;;;;;30.32;24.27;100629.00;5389609;32;35394;-77
2022/05/27 09:18:53;;;;;;;1.92;1.20;;;;;;;29.48;24.81;100636.13;5396380;32;44702;-67
2022/05/27 09:22:10;;;;;;;5.43;1.27;;;;;;;31.59;22.67;100619.00;5395233;32;34299;-64
2022/05/27 09:25:28;;;;;;;2.70;1.12;;;;;;;31.35;23.22;100615.56;5395033;32;34208;-67
2022/05/27 09:28:30;;;;;;;6.68;1.10;;;;;;;31.73;22.54;100621.66;5377730;32;34171;-66
2022/05/27 09:31:38;;;;;;;2.55;1.27;;;;;;;32.06;22.20;100615.75;5405990;32;35615;-66
2022/05/27 09:34:43;;;;;;;2.12;1.20;;;;;;;33.51;20.87;100615.16;5375089;32;35135;-69
2022/05/27 09:37:48;;;;;;;7.65;1.70;;;;;;;31.38;23.10;100603.50;5414433;32;45150;-74
2022/05/27 09:40:56;;;;;;;3.95;1.25;;;;;;;31.92;22.25;100594.94;5386168;32;34230;-76
2022/05/27 09:44:15;;;;;;;3.60;1.30;;;;;;;31.37;22.84;100604.56;5405634;32;34641;-75
2022/05/27 09:47:17;;;;;;;3.45;1.30;;;;;;;30.88;23.26;100600.53;5406461;32;44554;-73
2022/05/27 09:50:38;;;;;;;4.15;1.30;;;;;;;31.59;22.60;100600.00;5399975;32;34079;-73
2022/05/27 09:53:44;;;;;;;7.60;1.37;;;;;;;31.22;22.89;100590.94;5409137;32;35154;-65
2022/05/27 09:56:58;;;;;;;4.65;1.60;;;;;;;31.52;23.14;100583.63;5383809;32;44456;-68
2022/05/27 10:00:04;;;;;;;7.75;2.15;;;;;;;30.11;24.91;100570.06;5407865;32;34562;-74
2022/05/27 10:03:24;;;;;;;2.33;1.10;;;;;;;31.96;22.87;100575.34;5407696;32;33965;-77
2022/05/27 10:06:29;;;;;;;3.87;1.30;;;;;;;30.72;24.03;100573.56;5395491;32;36030;-74
2022/05/27 10:09:34;;;;;;;4.07;1.15;;;;;;;30.43;24.86;100569.75;5409139;32;35403;-68
2022/05/27 10:12:37;;;;;;;3.53;1.30;;;;;;;30.37;24.74;100566.94;5396403;32;35274;-66
2022/05/27 10:15:39;;;;;;;3.87;1.40;;;;;;;31.96;22.92;100567.19;5411205;32;35139;-67
2022/05/27 10:18:44;;;;;;;3.80;1.33;;;;;;;30.16;25.31;100562.25;5401068;32;34353;-67
2022/05/27 10:21:53;;;;;;;2.58;1.42;;;;;;;31.48;23.51;100557.88;5401589;32;44314;-66
2022/05/27 10:25:01;;;;;;;1.40;1.20;;;;;;;31.54;22.88;100554.38;5398480;32;34249;-67
2022/05/27 10:28:05;;;;;;;5.10;1.55;;;;;;;32.33;22.42;100541.59;5400510;32;35320;-73
2022/05/27 10:31:15;;;;;;;4.18;1.30;;;;;;;34.09;20.15;100540.00;5403908;32;34217;-72
2022/05/27 10:34:44;;;;;;;3.55;1.10;;;;;;;31.66;23.05;100539.25;5378767;32;46247;-72
2022/05/27 10:38:21;;;;;;;4.22;1.20;;;;;;;33.79;20.49;100531.34;5400131;32;44229;-67
2022/05/27 10:41:38;;;;;;;4.47;1.33;;;;;;;32.07;22.18;100525.88;5400394;32;44567;-80
2022/05/27 10:45:18;;;;;;;2.70;1.20;;;;;;;32.59;21.71;100511.00;5396427;32;34467;-74
2022/05/27 10:48:46;;;;;;;14.05;1.58;;;;;;;31.16;23.89;100519.25;5399128;32;35640;-75
2022/05/27 10:52:27;;;;;;;8.18;1.35;;;;;;;31.31;23.63;100513.00;5406648;32;44548;-91
2022/05/27 10:55:47;;;;;;;3.95;1.40;;;;;;;31.15;23.94;100503.16;5380783;32;34868;-67
2022/05/27 11:02:48;;;;;;;3.83;1.25;;;;;;;30.39;25.11;100494.37;5410293;32;44441;-67
2022/05/27 11:06:39;;;;;;;7.70;1.30;;;;;;;29.93;25.76;100481.78;5386363;32;44775;-68
2022/05/27 11:10:12;;;;;;;3.83;1.48;;;;;;;30.58;24.84;100482.97;5366361;32;34724;-82
2022/05/27 11:17:03;;;;;;;3.83;1.60;;;;;;;31.95;23.00;100456.78;5382708;32;34120;-68
2022/05/27 11:20:36;;;;;;;4.00;1.35;;;;;;;31.65;23.36;100458.78;5374974;32;35935;-77
2022/05/27 11:23:50;;;;;;;3.15;1.50;;;;;;;32.15;22.69;100450.66;5411598;32;34871;-66
2022/05/27 11:27:18;;;;;;;12.10;1.90;;;;;;;31.48;23.89;100449.22;5392037;32;44219;-75
2022/05/27 11:30:54;;;;;;;7.57;1.70;;;;;;;32.04;23.11;100441.16;5395154;32;43804;-74
2022/05/27 11:34:02;;;;;;;7.05;2.15;;;;;;;30.86;24.61;100447.09;5402990;32;35088;-72
2022/05/27 11:37:29;;;;;;;3.53;1.15;;;;;;;31.01;24.67;100434.31;5385090;32;35558;-69
2022/05/27 11:41:03;;;;;;;2.65;1.37;;;;;;;32.67;22.74;100435.69;5392610;32;34713;-68
2022/05/27 11:44:25;;;;;;;3.58;1.17;;;;;;;32.76;22.47;100416.25;5405996;32;34859;-73
2022/05/27 11:47:27;;;;;;;;;;;;;;;30.93;24.85;100419.00;5393676;32;37641;-69
2022/05/27 11:51:07;;;;;;;3.80;1.55;;;;;;;31.43;24.29;100413.66;5411567;32;34349;-70
2022/05/27 11:54:35;;;;;;;7.47;3.05;;;;;;;33.65;21.67;100401.56;5397761;32;35310;-73
2022/05/27 11:58:15;;;;;;;3.85;1.65;;;;;;;34.07;20.74;100399.44;5366331;32;40054;-73
2022/05/27 12:01:38;;;;;;;4.75;1.70;;;;;;;31.36;24.19;100386.44;5408608;32;34610;-73
2022/05/27 12:05:02;;;;;;;6.22;1.58;;;;;;;30.86;25.34;100387.38;5383227;32;33962;-74
2022/05/27 12:08:26;;;;;;;2.50;1.30;;;;;;;33.64;21.80;100370.78;5382644;32;34595;-74
2022/05/27 12:11:45;;;;;;;3.70;1.62;;;;;;;32.12;23.62;100374.91;5400894;32;35373;-68
2022/05/27 12:14:53;;;;;;;5.90;1.70;;;;;;;29.56;27.37;100362.59;5392935;32;46487;-70
2022/05/27 12:17:57;;;;;;;4.50;1.37;;;;;;;30.92;25.71;100356.78;5392180;32;34776;-73
2022/05/27 12:20:59;;;;;;;20.52;8.68;;;;;;;31.10;24.89;100362.56;5397767;32;34191;-74
2022/05/27 12:24:16;;;;;;;3.10;1.90;;;;;;;30.58;25.57;100346.53;5395789;32;34149;-69
2022/05/27 12:27:19;;;;;;;6.18;1.65;;;;;;;29.47;27.31;100350.97;5413201;32;46711;-69
2022/05/27 12:30:31;;;;;;;3.83;1.42;;;;;;;30.10;26.65;100351.56;5395463;32;35724;-68
2022/05/27 12:33:35;;;;;;;;;;;;;;;30.17;26.71;100337.09;5402566;32;34838;-69
2022/05/27 12:36:37;;;;;;;4.30;1.62;;;;;;;30.74;25.93;100330.91;5399839;32;35227;-69
2022/05/27 12:39:41;;;;;;;2.47;1.60;;;;;;;28.17;29.11;100333.72;5399119;32;34598;-68
2022/05/27 12:42:43;;;;;;;2.72;1.35;;;;;;;28.80;28.96;100319.19;5400735;32;36202;-73
2022/05/27 12:45:47;;;;;;;7.30;1.50;;;;;;;29.25;28.44;100320.22;5392701;32;47811;-70
2022/05/27 12:48:49;;;;;;;3.35;1.60;;;;;;;28.38;29.43;100314.22;5415418;32;34526;-70
2022/05/27 12:51:52;;;;;;;2.83;1.40;;;;;;;28.86;29.20;100312.22;5393877;32;34576;-70
2022/05/27 12:54:56;;;;;;;4.25;1.73;;;;;;;29.53;28.38;100306.97;5399937;32;34606;-68
2022/05/27 13:01:26;;;;;;;1.77;1.10;;;;;;;29.07;28.64;100293.50;5378390;32;44569;-68
2022/05/27 13:04:48;;;;;;;3.22;1.40;;;;;;;28.67;29.51;100285.66;5417861;32;34858;-73
2022/05/27 13:07:52;;;;;;;4.95;1.80;;;;;;;29.42;28.25;100289.25;5400831;32;44343;-69
2022/05/27 13:10:54;;;;;;;5.12;1.85;;;;;;;29.32;28.06;100275.16;5403315;32;34651;-75
2022/05/27 13:14:12;;;;;;;4.10;1.70;;;;;;;29.55;27.58;100274.28;5409013;32;35482;-73
2022/05/27 13:17:31;;;;;;;3.33;1.55;;;;;;;29.13;28.95;100271.13;5386780;32;34717;-74
2022/05/27 13:21:19;;;;;;;3.05;1.50;;;;;;;29.23;28.92;100256.47;5403254;32;34452;-70
2022/05/27 13:24:34;;;;;;;4.95;2.03;;;;;;;29.90;27.74;100246.44;5374272;32;36010;-69
2022/05/27 13:27:40;;;;;;;2.25;1.52;;;;;;;30.05;27.84;100246.41;5394233;32;34875;-70
2022/05/27 13:30:51;;;;;;;4.10;1.60;;;;;;;30.26;27.24;100236.69;5410973;32;34614;-72
2022/05/27 13:34:02;;;;;;;2.92;1.55;;;;;;;29.11;29.19;100246.12;5396658;32;47002;-73
2022/05/27 13:37:07;;;;;;;3.47;1.55;;;;;;;29.00;29.21;100248.41;5398969;32;32837;-74
2022/05/27 13:40:16;;;;;;;4.75;1.60;;;;;;;29.88;28.07;100231.38;5398612;32;34639;-74
2022/05/27 13:43:21;;;;;;;8.63;2.10;;;;;;;31.11;26.09;100231.28;5383044;32;45470;-68
2022/05/27 13:46:26;;;;;;;7.28;1.80;;;;;;;29.54;28.41;100232.81;5404646;32;34766;-69
2022/05/27 13:49:31;;;;;;;3.83;1.87;;;;;;;29.16;28.87;100225.75;5401849;32;34553;-74
2022/05/27 13:52:35;;;;;;;3.25;1.48;;;;;;;29.19;29.06;100220.84;5409450;32;34689;-74
2022/05/27 13:55:37;;;;;;;3.33;1.50;;;;;;;30.46;27.06;100210.59;5358901;32;34458;-69
2022/05/27 13:58:59;;;;;;;5.25;1.62;;;;;;;30.09;27.50;100198.94;5400992;32;35278;-75
2022/05/27 14:02:17;;;;;;;5.05;1.60;;;;;;;30.25;27.28;100197.06;5388161;32;34429;-72
2022/05/27 14:05:25;;;;;;;7.45;1.42;;;;;;;29.82;27.95;100192.38;5379245;32;44775;-73
2022/05/27 14:08:37;;;;;;;3.05;1.60;;;;;;;29.59;28.24;100181.66;5413570;32;35572;-68
2022/05/27 14:11:44;;;;;;;5.28;1.55;;;;;;;29.16;29.12;100186.00;5388107;32;35111;-69
2022/05/27 14:14:56;;;;;;;3.37;1.70;;;;;;;29.68;28.38;100177.81;5403594;32;44398;-68
2022/05/27 14:17:59;;;;;;;4.22;1.50;;;;;;;29.78;28.09;100179.41;5414283;32;35020;-68
2022/05/27 14:24:36;;;;;;;3.33;1.67;;;;;;;29.48;28.52;100165.00;5417605;32;35505;-69
2022/05/27 14:28:02;;;;;;;9.32;1.95;;;;;;;29.66;28.37;100155.50;5392596;32;34601;-70
2022/05/27 14:31:27;;;;;;;3.42;1.50;;;;;;;29.05;29.26;100162.97;5379041;32;35327;-72
2022/05/27 14:34:32;;;;;;;7.55;1.60;;;;;;;30.42;27.27;100150.53;5415925;32;34993;-67
2022/05/27 14:37:47;;;;;;;6.07;2.60;;;;;;;30.49;27.32;100142.44;5380751;32;35258;-69
2022/05/27 14:40:51;;;;;;;7.18;1.58;;;;;;;29.96;28.18;100144.59;5416170;32;45668;-69
2022/05/27 14:43:56;;;;;;;9.20;1.65;;;;;;;29.73;28.33;100139.34;5406448;32;34840;-71
2022/05/27 14:47:04;;;;;;;2.67;1.45;;;;;;;30.00;27.99;100124.22;5386152;32;33918;-71
2022/05/27 14:50:12;;;;;;;1.90;1.30;;;;;;;28.89;29.48;100136.03;5415047;32;34290;-72
2022/05/27 14:53:16;;;;;;;3.35;2.00;;;;;;;29.41;29.20;100129.72;5395363;32;37201;-68
2022/05/27 14:56:26;;;;;;;4.10;1.58;;;;;;;29.56;29.05;100122.47;5380206;32;34872;-70
2022/05/27 14:59:35;;;;;;;4.22;1.70;;;;;;;29.18;29.54;100115.50;5384486;32;35005;-72
2022/05/27 15:02:37;;;;;;;2.85;1.58;;;;;;;28.53;30.66;100115.09;5385656;32;34591;-72
2022/05/27 15:05:39;;;;;;;;;;;;;;;29.97;28.41;100108.34;5411695;32;34091;-68
2022/05/27 15:08:44;;;;;;;3.72;1.80;;;;;;;29.14;29.76;100109.59;5382434;32;34859;-68
2022/05/27 15:11:46;;;;;;;3.53;1.70;;;;;;;29.78;28.93;100106.25;5403737;32;44973;-70